createdAt,value
2022-10-19T00:00:19.229Z,86.40
2022-10-19T00:01:19.556Z,86.40
2022-10-19T00:02:18.906Z,85.96
2022-10-19T00:03:22.315Z,86.23
2022-10-19T00:04:19.089Z,85.96
2022-10-19T00:05:25.104Z,86.32
2022-10-19T00:06:19.113Z,86.32
2022-10-19T00:07:19.168Z,86.49
2022-10-19T00:08:18.609Z,86.32
2022-10-19T00:09:18.625Z,86.14
2022-10-19T00:10:19.164Z,86.94
2022-10-19T00:11:25.173Z,85.96
2022-10-19T00:12:18.936Z,86.05
2022-10-19T00:13:18.629Z,86.32
2022-10-19T00:14:18.721Z,86.49
2022-10-19T00:15:19.610Z,85.87
2022-10-19T00:16:27.944Z,86.32
2022-10-19T00:17:19.765Z,86.32
2022-10-19T00:18:18.885Z,85.78
2022-10-19T00:19:18.609Z,86.40
2022-10-19T00:20:18.558Z,86.32
2022-10-19T00:21:18.450Z,86.05
2022-10-19T00:22:24.800Z,86.14
2022-10-19T00:23:18.939Z,86.14
2022-10-19T00:24:19.098Z,86.05
2022-10-19T00:25:18.962Z,86.58
2022-10-19T00:26:18.544Z,86.40
2022-10-19T00:27:26.534Z,86.49
2022-10-19T00:28:18.382Z,86.32
2022-10-19T00:29:21.291Z,85.96
2022-10-19T00:30:18.778Z,86.23
2022-10-19T00:31:18.436Z,85.96
2022-10-19T00:32:18.340Z,85.78
2022-10-19T00:33:25.068Z,86.40
2022-10-19T00:34:18.254Z,85.61
2022-10-19T00:35:18.745Z,85.96
2022-10-19T00:36:18.287Z,85.96
2022-10-19T00:37:18.298Z,85.78
2022-10-19T00:38:35.982Z,85.96
2022-10-19T00:39:18.492Z,85.96
2022-10-19T00:40:19.211Z,85.96
2022-10-19T00:41:18.224Z,85.78
2022-10-19T00:42:18.483Z,85.78
2022-10-19T00:43:18.216Z,85.61
2022-10-19T00:44:24.900Z,85.78
2022-10-19T00:45:18.418Z,85.70
2022-10-19T00:46:18.526Z,85.70
2022-10-19T00:47:21.510Z,85.87
2022-10-19T00:48:18.213Z,85.96
2022-10-19T00:49:21.056Z,85.52
2022-10-19T00:50:29.399Z,85.78
2022-10-19T00:51:18.657Z,85.87
2022-10-19T00:52:18.467Z,86.05
2022-10-19T00:53:18.467Z,85.78
2022-10-19T00:54:18.549Z,85.61
2022-10-19T00:55:24.663Z,85.52
2022-10-19T00:56:18.430Z,85.96
2022-10-19T00:57:18.617Z,85.78
2022-10-19T00:58:18.562Z,85.78
2022-10-19T00:59:18.415Z,85.61
2022-10-19T01:00:18.074Z,85.78
2022-10-19T01:01:18.073Z,85.78
2022-10-19T01:02:18.550Z,85.43
2022-10-19T01:03:17.935Z,85.61
2022-10-19T01:04:17.970Z,85.70
2022-10-19T01:05:24.613Z,86.32
2022-10-19T01:06:17.909Z,86.14
2022-10-19T01:07:18.246Z,85.70
2022-10-19T01:08:17.943Z,86.14
2022-10-19T01:09:17.903Z,85.96
2022-10-19T01:10:18.038Z,85.87
2022-10-19T01:11:24.573Z,85.96
2022-10-19T01:12:17.798Z,85.70
2022-10-19T01:13:17.806Z,86.14
2022-10-19T01:14:18.355Z,85.87
2022-10-19T01:15:17.817Z,86.14
2022-10-19T01:16:18.523Z,85.35
2022-10-19T01:17:25.148Z,85.87
2022-10-19T01:18:17.690Z,85.87
2022-10-19T01:19:17.690Z,85.52
2022-10-19T01:20:18.060Z,86.14
2022-10-19T01:21:17.787Z,86.05
2022-10-19T01:22:25.826Z,85.78
2022-10-19T01:23:17.700Z,85.35
2022-10-19T01:24:18.141Z,85.70
2022-10-19T01:25:17.729Z,86.14
2022-10-19T01:26:23.021Z,85.78
2022-10-19T01:27:25.284Z,85.78
2022-10-19T01:28:20.675Z,85.96
2022-10-19T01:29:17.611Z,85.61
2022-10-19T01:30:21.828Z,85.43
2022-10-19T01:31:17.991Z,86.14
2022-10-19T01:32:18.688Z,85.43
2022-10-19T01:33:23.911Z,85.70
2022-10-19T01:34:17.984Z,85.96
2022-10-19T01:35:19.442Z,85.78
2022-10-19T01:36:20.553Z,85.61
2022-10-19T01:37:18.374Z,85.61
2022-10-19T01:38:25.381Z,85.52
2022-10-19T01:39:22.087Z,85.78
2022-10-19T01:40:17.901Z,85.78
2022-10-19T01:41:17.952Z,85.87
2022-10-19T01:42:17.997Z,85.78
2022-10-19T01:43:24.169Z,85.87
2022-10-19T01:44:17.413Z,85.43
2022-10-19T01:45:20.344Z,85.96
2022-10-19T01:46:18.254Z,85.43
2022-10-19T01:47:17.737Z,85.87
2022-10-19T01:48:17.405Z,85.78
2022-10-19T01:49:24.198Z,85.70
2022-10-19T01:50:17.266Z,85.61
2022-10-19T01:51:19.466Z,85.61
2022-10-19T01:52:17.715Z,85.96
2022-10-19T01:53:17.319Z,85.70
2022-10-19T01:54:23.611Z,85.96
2022-10-19T01:55:18.583Z,85.61
2022-10-19T01:56:17.648Z,85.61
2022-10-19T01:57:17.259Z,85.61
2022-10-19T01:58:17.355Z,85.61
2022-10-19T01:59:24.246Z,85.87
2022-10-19T02:00:17.238Z,85.61
2022-10-19T02:01:17.153Z,85.78
2022-10-19T02:02:17.549Z,86.14
2022-10-19T02:03:17.140Z,85.61
2022-10-19T02:04:23.390Z,85.87
2022-10-19T02:05:17.240Z,85.61
2022-10-19T02:06:17.154Z,85.70
2022-10-19T02:07:17.574Z,85.52
2022-10-19T02:08:17.787Z,85.87
2022-10-19T02:09:17.573Z,85.43
2022-10-19T02:10:23.389Z,85.61
2022-10-19T02:11:17.192Z,85.70
2022-10-19T02:12:17.402Z,85.87
2022-10-19T02:13:23.034Z,85.70
2022-10-19T02:14:17.149Z,85.70
2022-10-19T02:15:17.049Z,85.61
2022-10-19T02:16:24.034Z,86.05
2022-10-19T02:17:20.601Z,85.87
2022-10-19T02:18:17.301Z,85.52
2022-10-19T02:19:17.115Z,85.87
2022-10-19T02:20:17.653Z,85.61
2022-10-19T02:21:23.434Z,85.61
2022-10-19T02:22:17.340Z,85.78
2022-10-19T02:23:17.376Z,85.70
2022-10-19T02:24:16.928Z,85.52
2022-10-19T02:25:17.965Z,85.26
2022-10-19T02:26:17.293Z,85.87
2022-10-19T02:27:24.188Z,85.61
2022-10-19T02:28:17.890Z,85.87
2022-10-19T02:29:17.244Z,85.61
2022-10-19T02:30:16.854Z,85.17
2022-10-19T02:31:20.757Z,85.61
2022-10-19T02:32:17.877Z,85.35
2022-10-19T02:33:23.532Z,85.87
2022-10-19T02:34:16.732Z,85.78
2022-10-19T02:35:16.871Z,85.61
2022-10-19T02:36:16.731Z,86.32
2022-10-19T02:37:16.724Z,85.26
2022-10-19T02:38:23.427Z,85.87
2022-10-19T02:39:16.808Z,85.61
2022-10-19T02:40:17.142Z,85.87
2022-10-19T02:41:17.051Z,85.96
2022-10-19T02:42:17.134Z,85.61
2022-10-19T02:43:17.205Z,85.87
2022-10-19T02:44:23.466Z,86.14
2022-10-19T02:45:17.742Z,85.78
2022-10-19T02:46:16.672Z,85.43
2022-10-19T02:47:16.934Z,85.61
2022-10-19T02:48:17.173Z,85.96
2022-10-19T02:49:24.978Z,85.78
2022-10-19T02:50:16.658Z,85.87
2022-10-19T02:51:17.333Z,85.78
2022-10-19T02:52:16.537Z,85.78
2022-10-19T02:53:16.982Z,85.61
2022-10-19T02:54:23.465Z,85.43
2022-10-19T02:55:17.016Z,85.43
2022-10-19T02:56:16.565Z,85.52
2022-10-19T02:57:16.804Z,85.43
2022-10-19T02:58:16.532Z,85.17
2022-10-19T02:59:17.424Z,85.70
2022-10-19T03:00:23.326Z,85.61
2022-10-19T03:01:17.384Z,85.52
2022-10-19T03:02:16.889Z,85.61
2022-10-19T03:03:16.570Z,85.43
2022-10-19T03:04:16.538Z,85.09
2022-10-19T03:05:23.948Z,85.61
2022-10-19T03:06:16.485Z,85.26
2022-10-19T03:07:16.883Z,85.43
2022-10-19T03:08:16.870Z,85.52
2022-10-19T03:09:16.682Z,85.26
2022-10-19T03:10:23.134Z,85.17
2022-10-19T03:11:17.365Z,85.78
2022-10-19T03:12:16.289Z,85.35
2022-10-19T03:13:16.575Z,85.26
2022-10-19T03:14:16.649Z,85.09
2022-10-19T03:15:16.643Z,85.17
2022-10-19T03:16:22.688Z,85.26
2022-10-19T03:17:16.174Z,85.61
2022-10-19T03:18:18.811Z,85.61
2022-10-19T03:19:16.287Z,85.17
2022-10-19T03:20:18.167Z,86.05
2022-10-19T03:21:16.251Z,85.35
2022-10-19T03:22:24.093Z,85.09
2022-10-19T03:23:16.739Z,85.61
2022-10-19T03:24:17.049Z,85.61
2022-10-19T03:25:16.102Z,85.61
2022-10-19T03:26:16.155Z,85.26
2022-10-19T03:27:16.426Z,85.26
2022-10-19T03:28:22.597Z,85.61
2022-10-19T03:29:16.195Z,85.26
2022-10-19T03:30:16.388Z,85.09
2022-10-19T03:31:16.184Z,85.61
2022-10-19T03:32:16.385Z,85.43
2022-10-19T03:33:16.355Z,85.61
2022-10-19T03:34:23.636Z,85.43
2022-10-19T03:35:16.309Z,85.09
2022-10-19T03:36:16.427Z,85.17
2022-10-19T03:37:16.486Z,85.43
2022-10-19T03:38:16.024Z,85.17
2022-10-19T03:39:16.037Z,85.35
2022-10-19T03:40:22.343Z,85.61
2022-10-19T03:41:16.041Z,85.35
2022-10-19T03:42:16.969Z,85.61
2022-10-19T03:43:16.371Z,85.52
2022-10-19T03:44:16.013Z,85.52
2022-10-19T03:45:22.214Z,85.35
2022-10-19T03:46:16.281Z,85.35
2022-10-19T03:47:16.519Z,85.43
2022-10-19T03:48:16.804Z,85.70
2022-10-19T03:49:16.928Z,85.52
2022-10-19T03:50:22.157Z,85.43
2022-10-19T03:51:15.999Z,85.09
2022-10-19T03:52:15.709Z,86.05
2022-10-19T03:53:15.734Z,85.70
2022-10-19T03:54:15.727Z,85.26
2022-10-19T03:55:22.058Z,85.52
2022-10-19T03:56:16.214Z,85.70
2022-10-19T03:57:22.087Z,85.26
2022-10-19T03:58:15.741Z,85.78
2022-10-19T03:59:15.961Z,85.78
2022-10-19T04:00:22.396Z,85.35
2022-10-19T04:01:15.839Z,85.78
2022-10-19T04:02:15.609Z,85.43
2022-10-19T04:03:15.570Z,85.35
2022-10-19T04:04:15.581Z,85.43
2022-10-19T04:05:22.241Z,85.61
2022-10-19T04:06:18.336Z,85.09
2022-10-19T04:07:17.350Z,85.43
2022-10-19T04:08:15.904Z,85.17
2022-10-19T04:09:15.489Z,85.52
2022-10-19T04:10:21.946Z,85.70
2022-10-19T04:11:15.678Z,85.17
2022-10-19T04:12:15.833Z,85.52
2022-10-19T04:13:15.744Z,85.52
2022-10-19T04:14:22.856Z,85.43
2022-10-19T04:15:17.084Z,85.35
2022-10-19T04:16:22.518Z,85.87
2022-10-19T04:17:15.355Z,85.35
2022-10-19T04:18:15.403Z,86.05
2022-10-19T04:19:16.267Z,85.00
2022-10-19T04:20:15.756Z,85.43
2022-10-19T04:21:16.261Z,85.35
2022-10-19T04:22:21.989Z,85.61
2022-10-19T04:24:15.421Z,85.70
2022-10-19T04:25:15.744Z,85.26
2022-10-19T04:26:16.381Z,85.61
2022-10-19T04:27:26.523Z,85.43
2022-10-19T04:28:15.742Z,85.52
2022-10-19T04:29:15.502Z,86.32
2022-10-19T04:30:15.625Z,85.52
2022-10-19T04:31:15.804Z,86.23
2022-10-19T04:32:21.982Z,85.61
2022-10-19T04:33:15.263Z,85.70
2022-10-19T04:34:15.538Z,86.32
2022-10-19T04:35:15.448Z,85.35
2022-10-19T04:36:15.696Z,85.78
2022-10-19T04:37:15.141Z,85.96
2022-10-19T04:38:23.694Z,85.61
2022-10-19T04:39:15.228Z,85.96
2022-10-19T04:40:15.457Z,86.14
2022-10-19T04:41:15.530Z,85.52
2022-10-19T04:42:15.471Z,85.61
2022-10-19T04:43:21.698Z,85.61
2022-10-19T04:44:17.758Z,84.92
2022-10-19T04:45:15.542Z,84.92
2022-10-19T04:46:15.459Z,85.52
2022-10-19T04:47:14.993Z,85.70
2022-10-19T04:48:15.426Z,85.70
2022-10-19T04:49:21.704Z,85.61
2022-10-19T04:50:15.287Z,85.35
2022-10-19T04:51:15.438Z,85.61
2022-10-19T04:52:19.767Z,85.70
2022-10-19T04:53:15.067Z,85.35
2022-10-19T04:54:14.897Z,85.70
2022-10-19T04:55:21.620Z,84.92
2022-10-19T04:56:14.928Z,85.78
2022-10-19T04:57:15.856Z,85.35
2022-10-19T04:58:15.217Z,85.17
2022-10-19T04:59:15.309Z,85.26
2022-10-19T05:00:15.187Z,85.26
2022-10-19T05:01:21.587Z,85.43
2022-10-19T05:02:15.379Z,85.26
2022-10-19T05:03:14.935Z,85.78
2022-10-19T05:04:19.374Z,85.78
2022-10-19T05:05:14.935Z,85.78
2022-10-19T05:06:15.574Z,85.78
2022-10-19T05:07:22.110Z,85.35
2022-10-19T05:08:14.760Z,85.61
2022-10-19T05:09:14.729Z,85.35
2022-10-19T05:10:14.918Z,85.35
2022-10-19T05:11:14.947Z,85.26
2022-10-19T05:12:14.754Z,85.09
2022-10-19T05:13:23.133Z,85.26
2022-10-19T05:14:14.718Z,85.09
2022-10-19T05:15:17.709Z,85.17
2022-10-19T05:16:15.796Z,85.26
2022-10-19T05:17:16.683Z,85.52
2022-10-19T05:18:14.813Z,85.09
2022-10-19T05:19:21.948Z,85.87
2022-10-19T05:20:14.700Z,85.43
2022-10-19T05:21:14.962Z,85.43
2022-10-19T05:22:15.338Z,85.26
2022-10-19T05:23:15.447Z,85.78
2022-10-19T05:24:21.277Z,85.43
2022-10-19T05:25:14.747Z,85.26
2022-10-19T05:26:14.748Z,85.26
2022-10-19T05:27:14.555Z,85.09
2022-10-19T05:28:16.146Z,85.17
2022-10-19T05:29:23.255Z,85.17
2022-10-19T05:30:14.569Z,85.52
2022-10-19T05:31:19.412Z,84.74
2022-10-19T05:32:16.884Z,85.78
2022-10-19T05:33:14.875Z,85.17
2022-10-19T05:34:22.040Z,85.26
2022-10-19T05:35:17.445Z,85.35
2022-10-19T05:36:16.877Z,86.05
2022-10-19T05:37:15.173Z,85.43
2022-10-19T05:38:14.902Z,85.61
2022-10-19T05:39:14.929Z,86.05
2022-10-19T05:40:22.004Z,85.43
2022-10-19T05:41:15.805Z,85.78
2022-10-19T05:42:18.025Z,86.05
2022-10-19T05:43:16.495Z,85.96
2022-10-19T05:44:16.097Z,86.32
2022-10-19T05:45:14.891Z,86.05
2022-10-19T05:46:21.836Z,86.40
2022-10-19T05:47:15.370Z,86.40
2022-10-19T05:48:15.521Z,86.40
2022-10-19T05:49:15.465Z,86.32
2022-10-19T05:50:14.905Z,86.32
2022-10-19T05:51:21.803Z,86.40
2022-10-19T05:52:14.791Z,86.49
2022-10-19T05:53:14.649Z,86.49
2022-10-19T05:54:15.756Z,86.49
2022-10-19T05:55:15.189Z,86.76
2022-10-19T05:56:21.560Z,87.31
2022-10-19T05:57:14.424Z,87.12
2022-10-19T05:58:15.668Z,86.67
2022-10-19T05:59:14.901Z,87.03
2022-10-19T06:00:17.605Z,87.03
2022-10-19T06:01:15.750Z,86.76
2022-10-19T06:02:24.844Z,86.67
2022-10-19T06:03:14.152Z,86.49
2022-10-19T06:04:14.829Z,87.12
2022-10-19T06:05:14.338Z,86.94
2022-10-19T06:06:14.425Z,86.40
2022-10-19T06:07:14.188Z,86.76
2022-10-19T06:08:25.006Z,87.21
2022-10-19T06:09:14.324Z,86.49
2022-10-19T06:10:14.432Z,86.85
2022-10-19T06:11:14.163Z,86.49
2022-10-19T06:12:16.190Z,86.58
2022-10-19T06:13:25.989Z,87.03
2022-10-19T06:14:14.302Z,86.40
2022-10-19T06:15:14.003Z,86.76
2022-10-19T06:16:15.031Z,86.58
2022-10-19T06:17:14.229Z,86.94
2022-10-19T06:18:13.879Z,86.76
2022-10-19T06:19:20.300Z,86.67
2022-10-19T06:20:15.257Z,86.32
2022-10-19T06:21:14.121Z,87.03
2022-10-19T06:22:14.814Z,86.58
2022-10-19T06:23:14.588Z,86.67
2022-10-19T06:24:13.780Z,86.49
2022-10-19T06:25:21.630Z,86.49
2022-10-19T06:26:13.881Z,85.96
2022-10-19T06:27:13.912Z,86.23
2022-10-19T06:28:14.071Z,86.32
2022-10-19T06:29:14.082Z,86.94
2022-10-19T06:30:20.190Z,85.96
2022-10-19T06:31:13.754Z,86.14
2022-10-19T06:32:13.787Z,85.78
2022-10-19T06:33:14.627Z,86.49
2022-10-19T06:34:14.116Z,86.23
2022-10-19T06:35:14.035Z,86.14
2022-10-19T06:36:21.198Z,85.70
2022-10-19T06:37:14.503Z,86.32
2022-10-19T06:38:13.698Z,85.70
2022-10-19T06:39:19.476Z,86.40
2022-10-19T06:40:13.586Z,85.96
2022-10-19T06:41:13.572Z,85.78
2022-10-19T06:42:22.553Z,85.61
2022-10-19T06:43:13.936Z,86.05
2022-10-19T06:44:18.774Z,85.96
2022-10-19T06:45:13.628Z,85.17
2022-10-19T06:46:13.816Z,85.78
2022-10-19T06:47:13.843Z,85.26
2022-10-19T06:48:21.184Z,85.52
2022-10-19T06:49:13.913Z,85.43
2022-10-19T06:50:14.564Z,85.43
2022-10-19T06:51:13.609Z,85.43
2022-10-19T06:52:13.547Z,85.09
2022-10-19T06:53:19.992Z,85.43
2022-10-19T06:54:13.456Z,86.14
2022-10-19T06:55:13.513Z,85.43
2022-10-19T06:56:18.133Z,85.09
2022-10-19T06:57:14.060Z,84.83
2022-10-19T06:58:27.166Z,85.26
2022-10-19T06:59:21.173Z,85.09
2022-10-19T07:00:13.446Z,84.92
2022-10-19T07:01:13.947Z,84.92
2022-10-19T07:02:13.801Z,85.00
2022-10-19T07:03:13.664Z,84.57
2022-10-19T07:04:24.532Z,84.66
2022-10-19T07:05:13.417Z,84.83
2022-10-19T07:06:14.256Z,84.40
2022-10-19T07:07:14.509Z,84.06
2022-10-19T07:08:15.414Z,84.66
2022-10-19T07:09:19.556Z,84.15
2022-10-19T07:10:20.860Z,84.06
2022-10-19T07:11:14.731Z,84.15
2022-10-19T07:12:14.074Z,84.06
2022-10-19T07:13:13.644Z,83.81
2022-10-19T07:14:19.987Z,84.49
2022-10-19T07:15:13.857Z,84.23
2022-10-19T07:16:16.098Z,84.06
2022-10-19T07:17:17.283Z,83.81
2022-10-19T07:18:13.387Z,83.89
2022-10-19T07:19:14.183Z,83.89
2022-10-19T07:20:19.544Z,83.64
2022-10-19T07:21:15.732Z,83.73
2022-10-19T07:22:19.709Z,83.56
2022-10-19T07:23:14.668Z,83.89
2022-10-19T07:24:13.288Z,83.23
2022-10-19T07:25:13.546Z,83.56
2022-10-19T07:26:19.429Z,83.39
2022-10-19T07:27:14.198Z,83.39
2022-10-19T07:28:16.084Z,82.90
2022-10-19T07:29:13.859Z,83.31
2022-10-19T07:30:14.666Z,83.23
2022-10-19T07:31:19.701Z,83.06
2022-10-19T07:32:13.447Z,82.90
2022-10-19T07:33:13.146Z,83.23
2022-10-19T07:34:14.241Z,82.41
2022-10-19T07:35:12.908Z,82.41
2022-10-19T07:36:20.434Z,82.65
2022-10-19T07:37:13.121Z,82.33
2022-10-19T07:38:13.229Z,82.65
2022-10-19T07:39:13.286Z,82.49
2022-10-19T07:40:12.983Z,82.25
2022-10-19T07:41:13.724Z,82.57
2022-10-19T07:42:19.662Z,82.08
2022-10-19T07:43:12.862Z,82.33
2022-10-19T07:44:18.353Z,82.00
2022-10-19T07:45:16.086Z,81.92
2022-10-19T07:46:13.186Z,81.53
2022-10-19T07:47:19.656Z,81.61
2022-10-19T07:48:12.789Z,81.92
2022-10-19T07:49:13.363Z,81.76
2022-10-19T07:50:13.140Z,81.92
2022-10-19T07:51:13.489Z,81.76
2022-10-19T07:52:14.200Z,81.92
2022-10-19T07:53:19.443Z,81.76
2022-10-19T07:54:13.119Z,81.76
2022-10-19T07:55:13.194Z,81.29
2022-10-19T07:56:12.723Z,81.61
2022-10-19T07:57:14.712Z,81.61
2022-10-19T07:58:17.247Z,81.21
2022-10-19T07:59:19.492Z,81.29
2022-10-19T08:00:12.860Z,81.45
2022-10-19T08:01:12.918Z,81.37
2022-10-19T08:02:12.714Z,81.13
2022-10-19T08:05:13.938Z,81.29
2022-10-19T08:06:14.031Z,80.89
2022-10-19T08:07:12.934Z,80.82
2022-10-19T08:08:13.455Z,80.51
2022-10-19T08:09:40.459Z,80.97
2022-10-19T08:10:14.737Z,80.66
2022-10-19T08:11:14.095Z,80.82
2022-10-19T08:12:15.429Z,80.82
2022-10-19T08:13:13.014Z,80.82
2022-10-19T08:14:15.352Z,80.35
2022-10-19T08:15:18.794Z,80.35
2022-10-19T08:16:12.806Z,80.58
2022-10-19T08:17:13.439Z,80.58
2022-10-19T08:18:12.528Z,80.51
2022-10-19T08:19:13.658Z,80.43
2022-10-19T08:20:15.178Z,80.43
2022-10-19T08:21:19.528Z,80.58
2022-10-19T08:22:12.244Z,80.66
2022-10-19T08:23:13.103Z,80.28
2022-10-19T08:24:12.940Z,80.12
2022-10-19T08:25:14.332Z,80.35
2022-10-19T08:26:12.532Z,80.04
2022-10-19T08:27:18.997Z,80.82
2022-10-19T08:28:13.324Z,80.35
2022-10-19T08:29:12.361Z,80.51
2022-10-19T08:30:12.930Z,80.58
2022-10-19T08:31:13.265Z,80.28
2022-10-19T08:32:13.376Z,80.82
2022-10-19T08:33:21.638Z,80.51
2022-10-19T08:34:13.196Z,80.35
2022-10-19T08:35:12.252Z,80.04
2022-10-19T08:36:12.837Z,80.74
2022-10-19T08:37:25.957Z,80.43
2022-10-19T08:38:19.934Z,80.66
2022-10-19T08:39:12.977Z,80.66
2022-10-19T08:40:12.085Z,80.43
2022-10-19T08:41:12.049Z,80.28
2022-10-19T08:42:16.242Z,80.51
2022-10-19T08:43:13.017Z,80.20
2022-10-19T08:44:18.578Z,80.28
2022-10-19T08:45:12.795Z,79.89
2022-10-19T08:46:12.141Z,79.74
2022-10-19T08:47:12.640Z,79.59
2022-10-19T08:48:11.933Z,79.82
2022-10-19T08:49:18.341Z,79.59
2022-10-19T08:50:11.975Z,79.51
2022-10-19T08:51:11.993Z,79.36
2022-10-19T08:52:12.076Z,79.51
2022-10-19T08:53:11.889Z,79.29
2022-10-19T08:54:19.123Z,79.21
2022-10-19T08:55:15.072Z,79.59
2022-10-19T08:56:18.351Z,79.21
2022-10-19T08:57:13.329Z,79.51
2022-10-19T08:58:11.800Z,78.84
2022-10-19T08:59:12.116Z,78.84
2022-10-19T09:00:20.484Z,79.06
2022-10-19T09:01:11.870Z,79.14
2022-10-19T09:02:11.761Z,79.21
2022-10-19T09:03:11.930Z,78.84
2022-10-19T09:04:11.793Z,78.69
2022-10-19T09:05:18.808Z,78.47
2022-10-19T09:06:12.304Z,78.54
2022-10-19T09:07:14.884Z,78.47
2022-10-19T09:08:17.482Z,78.40
2022-10-19T09:09:13.219Z,78.54
2022-10-19T09:10:18.065Z,78.40
2022-10-19T09:11:11.678Z,78.54
2022-10-19T09:12:12.229Z,78.54
2022-10-19T09:13:12.037Z,78.40
2022-10-19T09:14:12.326Z,78.54
2022-10-19T09:15:12.015Z,78.54
2022-10-19T09:16:18.431Z,78.32
2022-10-19T09:17:12.044Z,78.03
2022-10-19T09:18:11.522Z,78.25
2022-10-19T09:19:11.575Z,78.32
2022-10-19T09:20:15.505Z,77.96
2022-10-19T09:21:18.159Z,78.03
2022-10-19T09:22:11.618Z,78.10
2022-10-19T09:23:13.430Z,77.74
2022-10-19T09:24:12.750Z,77.67
2022-10-19T09:25:11.979Z,77.81
2022-10-19T09:26:20.830Z,77.24
2022-10-19T09:27:11.605Z,77.24
2022-10-19T09:28:12.227Z,77.24
2022-10-19T09:29:11.680Z,77.38
2022-10-19T09:30:11.437Z,76.96
2022-10-19T09:31:11.306Z,77.10
2022-10-19T09:32:19.834Z,77.10
2022-10-19T09:33:15.262Z,77.03
2022-10-19T09:34:12.038Z,77.03
2022-10-19T09:35:12.429Z,76.96
2022-10-19T09:36:22.304Z,77.17
2022-10-19T09:37:25.949Z,77.03
2022-10-19T09:38:12.873Z,76.82
2022-10-19T09:39:11.702Z,76.53
2022-10-19T09:40:11.240Z,76.74
2022-10-19T09:41:11.210Z,76.46
2022-10-19T09:42:11.375Z,76.67
2022-10-19T09:43:18.456Z,76.67
2022-10-19T09:44:16.318Z,76.67
2022-10-19T09:45:11.634Z,77.03
2022-10-19T09:46:18.732Z,76.67
2022-10-19T09:47:13.795Z,76.67
2022-10-19T09:48:13.128Z,76.60
2022-10-19T09:49:18.379Z,76.67
2022-10-19T09:50:13.289Z,76.67
2022-10-19T09:51:11.465Z,76.74
2022-10-19T09:52:11.745Z,76.53
2022-10-19T09:53:11.444Z,76.67
2022-10-19T09:54:11.039Z,76.89
2022-10-19T09:55:17.575Z,76.74
2022-10-19T09:56:17.982Z,76.67
2022-10-19T09:57:11.534Z,76.74
2022-10-19T09:58:11.942Z,77.10
2022-10-19T09:59:11.865Z,76.67
2022-10-19T10:00:17.459Z,76.89
2022-10-19T10:01:13.197Z,76.60
2022-10-19T10:02:11.154Z,76.67
2022-10-19T10:03:12.067Z,76.89
2022-10-19T10:04:11.438Z,76.74
2022-10-19T10:05:18.722Z,76.32
2022-10-19T10:06:11.049Z,76.53
2022-10-19T10:07:11.655Z,76.25
2022-10-19T10:08:11.521Z,76.05
2022-10-19T10:09:11.201Z,75.98
2022-10-19T10:10:17.673Z,76.12
2022-10-19T10:11:11.703Z,75.98
2022-10-19T10:12:11.168Z,75.77
2022-10-19T10:13:10.907Z,75.77
2022-10-19T10:14:11.493Z,75.84
2022-10-19T10:15:18.354Z,76.12
2022-10-19T10:16:14.346Z,75.77
2022-10-19T10:17:13.655Z,75.84
2022-10-19T10:18:11.552Z,75.98
2022-10-19T10:19:11.273Z,75.91
2022-10-19T10:20:10.959Z,76.05
2022-10-19T10:21:21.607Z,76.12
2022-10-19T10:22:16.523Z,76.32
2022-10-19T10:23:11.321Z,76.46
2022-10-19T10:24:10.640Z,76.53
2022-10-19T10:25:11.098Z,76.60
2022-10-19T10:26:17.035Z,76.67
2022-10-19T10:27:11.961Z,77.24
2022-10-19T10:28:10.697Z,77.38
2022-10-19T10:29:10.723Z,77.38
2022-10-19T10:30:10.538Z,77.60
2022-10-19T10:31:10.745Z,77.67
2022-10-19T10:32:16.981Z,77.67
2022-10-19T10:33:26.982Z,77.81
2022-10-19T10:34:28.448Z,77.67
2022-10-19T10:35:11.529Z,77.60
2022-10-19T10:36:10.508Z,77.74
2022-10-19T10:37:11.146Z,77.74
2022-10-19T10:38:16.819Z,77.81
2022-10-19T10:39:10.572Z,77.60
2022-10-19T10:40:10.946Z,77.74
2022-10-19T10:41:10.757Z,77.45
2022-10-19T10:42:10.506Z,77.89
2022-10-19T10:43:16.776Z,77.24
2022-10-19T10:44:13.813Z,77.67
2022-10-19T10:45:10.406Z,77.81
2022-10-19T10:46:10.406Z,77.38
2022-10-19T10:47:11.078Z,77.24
2022-10-19T10:48:16.689Z,77.17
2022-10-19T10:49:10.409Z,77.17
2022-10-19T10:50:10.472Z,77.24
2022-10-19T10:51:10.693Z,76.89
2022-10-19T10:52:10.765Z,76.74
2022-10-19T10:53:10.591Z,76.53
2022-10-19T10:54:16.684Z,76.53
2022-10-19T10:55:10.295Z,76.67
2022-10-19T10:56:12.972Z,76.67
2022-10-19T10:57:10.734Z,76.46
2022-10-19T10:58:11.124Z,76.39
2022-10-19T10:59:15.281Z,76.12
2022-10-19T11:00:18.115Z,76.25
2022-10-19T11:01:10.233Z,76.32
2022-10-19T11:02:10.295Z,76.19
2022-10-19T11:03:10.689Z,76.05
2022-10-19T11:04:10.150Z,76.39
2022-10-19T11:05:17.127Z,75.98
2022-10-19T11:06:10.695Z,76.39
2022-10-19T11:07:10.183Z,76.39
2022-10-19T11:08:14.124Z,75.91
2022-10-19T11:09:10.764Z,76.12
2022-10-19T11:10:10.234Z,76.46
2022-10-19T11:11:16.854Z,76.67
2022-10-19T11:12:10.142Z,76.12
2022-10-19T11:13:10.318Z,76.32
2022-10-19T11:14:11.315Z,76.25
2022-10-19T11:15:11.056Z,75.98
2022-10-19T11:16:10.021Z,76.32
2022-10-19T11:17:18.639Z,76.25
2022-10-19T11:18:10.434Z,76.19
2022-10-19T11:19:10.731Z,75.98
2022-10-19T11:20:12.326Z,75.84
2022-10-19T11:21:10.121Z,76.25
2022-10-19T11:22:17.437Z,75.77
2022-10-19T11:23:10.025Z,75.57
2022-10-19T11:24:10.134Z,75.50
2022-10-19T11:25:09.965Z,75.29
2022-10-19T11:26:09.950Z,75.29
2022-10-19T11:27:10.585Z,75.09
2022-10-19T11:28:20.789Z,74.62
2022-10-19T11:29:10.028Z,74.69
2022-10-19T11:30:09.769Z,74.62
2022-10-19T11:31:09.921Z,74.49
2022-10-19T11:32:10.141Z,74.23
2022-10-19T11:33:16.500Z,74.10
2022-10-19T11:34:09.744Z,74.10
2022-10-19T11:35:09.782Z,74.03
2022-10-19T11:36:10.101Z,73.90
2022-10-19T11:37:10.227Z,73.51
2022-10-19T11:38:29.560Z,73.57
2022-10-19T11:39:18.637Z,73.96
2022-10-19T11:40:09.703Z,73.25
2022-10-19T11:41:18.167Z,73.00
2022-10-19T11:42:11.209Z,72.93
2022-10-19T11:43:10.226Z,72.87
2022-10-19T11:44:09.653Z,73.45
2022-10-19T11:45:53.756Z,127.38
2022-10-19T11:46:53.154Z,99.70
2022-10-19T11:47:53.183Z,90.71
2022-10-19T11:48:54.920Z,84.83
2022-10-19T11:49:53.323Z,81.29
2022-10-19T11:51:16.773Z,78.54
2022-10-19T11:51:54.533Z,77.10
2022-10-19T11:52:53.687Z,75.98
2022-10-19T11:53:59.289Z,76.12
2022-10-19T11:54:57.673Z,75.36
2022-10-19T11:55:53.118Z,74.49
2022-10-19T11:57:06.372Z,73.83
2022-10-19T11:57:54.965Z,74.49
2022-10-19T11:58:53.392Z,73.38
2022-10-19T11:59:53.698Z,73.32
2022-10-19T12:00:52.961Z,73.32
2022-10-19T12:01:59.485Z,72.93
2022-10-19T12:02:52.933Z,72.93
2022-10-19T12:03:53.327Z,72.87
2022-10-19T12:04:53.376Z,73.13
2022-10-19T12:05:53.693Z,73.06
2022-10-19T12:06:59.988Z,73.25
2022-10-19T12:07:52.895Z,73.25
2022-10-19T12:08:55.387Z,73.25
2022-10-19T12:09:53.213Z,73.19
2022-10-19T12:10:53.204Z,73.57
2022-10-19T12:12:02.750Z,73.38
2022-10-19T12:12:53.245Z,73.83
2022-10-19T12:13:52.788Z,73.57
2022-10-19T12:14:52.750Z,73.38
2022-10-19T12:15:53.828Z,73.19
2022-10-19T12:16:54.019Z,72.87
2022-10-19T12:17:59.604Z,72.75
2022-10-19T12:18:54.949Z,72.49
2022-10-19T12:19:52.785Z,72.81
2022-10-19T12:21:05.115Z,73.00
2022-10-19T12:21:52.791Z,72.37
2022-10-19T12:22:52.686Z,72.31
2022-10-19T12:24:04.212Z,71.69
2022-10-19T12:24:52.620Z,72.06
2022-10-19T12:25:53.090Z,72.68
2022-10-19T12:26:52.922Z,71.56
2022-10-19T12:27:52.938Z,71.69
2022-10-19T12:28:52.780Z,71.93
2022-10-19T12:30:01.650Z,72.31
2022-10-19T12:30:52.868Z,71.62
2022-10-19T12:31:52.802Z,71.56
2022-10-19T12:32:56.443Z,72.24
2022-10-19T12:33:52.459Z,71.32
2022-10-19T12:34:59.221Z,71.50
2022-10-19T12:35:52.513Z,71.50
2022-10-19T12:36:52.474Z,71.62
2022-10-19T12:37:53.606Z,71.87
2022-10-19T12:39:00.002Z,71.56
2022-10-19T12:40:16.703Z,71.81
2022-10-19T12:40:52.607Z,72.06
2022-10-19T12:41:53.332Z,72.31
2022-10-19T12:42:52.508Z,71.81
2022-10-19T12:43:52.411Z,72.06
2022-10-19T12:44:59.134Z,72.06
2022-10-19T12:45:52.722Z,72.24
2022-10-19T12:46:53.787Z,72.31
2022-10-19T12:47:52.796Z,72.24
2022-10-19T12:48:52.318Z,72.24
2022-10-19T12:49:52.513Z,72.06
2022-10-19T12:51:01.136Z,72.24
2022-10-19T12:51:52.372Z,72.18
2022-10-19T12:52:52.808Z,71.99
2022-10-19T12:53:52.222Z,72.12
2022-10-19T12:54:53.578Z,71.62
2022-10-19T12:55:52.743Z,71.93